sensor_id;sensor_type;location;lat;lon;timestamp;pressure;altitude;pressure_sealevel;temperature;humidity
51972;BME280;37991;49.662;10.060;2022-09-09T00:01:53;98911.25;;;14.03;87.95
51972;BME280;37991;49.662;10.060;2022-09-09T00:07:23;98916.22;;;14.06;88.20
51972;BME280;37991;49.662;10.060;2022-09-09T00:15:25;98912.06;;;13.94;88.43
51972;BME280;37991;49.662;10.060;2022-09-09T00:18:17;98912.50;;;13.89;89.32
51972;BME280;37991;49.662;10.060;2022-09-09T00:20:55;98912.63;;;13.88;89.16
51972;BME280;37991;49.662;10.060;2022-09-09T00:23:30;98919.56;;;13.89;89.76
51972;BME280;37991;49.662;10.060;2022-09-09T00:26:04;98916.94;;;13.89;89.40
51972;BME280;37991;49.662;10.060;2022-09-09T00:28:38;98924.00;;;13.88;90.05
51972;BME280;37991;49.662;10.060;2022-09-09T00:31:12;98927.47;;;13.89;90.09
51972;BME280;37991;49.662;10.060;2022-09-09T00:33:38;98924.84;;;13.89;90.85
51972;BME280;37991;49.662;10.060;2022-09-09T00:36:12;98931.75;;;13.90;91.42
51972;BME280;37991;49.662;10.060;2022-09-09T00:39:00;98941.03;;;13.94;91.50
51972;BME280;37991;49.662;10.060;2022-09-09T00:44:20;98936.47;;;13.86;93.81
51972;BME280;37991;49.662;10.060;2022-09-09T00:57:34;98908.19;;;14.08;95.55
51972;BME280;37991;49.662;10.060;2022-09-09T01:00:24;98912.38;;;14.10;97.89
51972;BME280;37991;49.662;10.060;2022-09-09T01:07:49;98901.69;;;14.12;98.81
51972;BME280;37991;49.662;10.060;2022-09-09T01:10:43;98900.84;;;14.11;99.29
51972;BME280;37991;49.662;10.060;2022-09-09T01:13:22;98904.75;;;14.07;99.71
51972;BME280;37991;49.662;10.060;2022-09-09T01:15:50;98915.81;;;14.11;99.25
51972;BME280;37991;49.662;10.060;2022-09-09T01:18:21;98906.38;;;14.18;98.49
51972;BME280;37991;49.662;10.060;2022-09-09T01:21:03;98908.47;;;14.14;97.84
51972;BME280;37991;49.662;10.060;2022-09-09T01:28:50;98912.75;;;14.25;97.96
51972;BME280;37991;49.662;10.060;2022-09-09T01:31:32;98904.44;;;14.30;98.17
51972;BME280;37991;49.662;10.060;2022-09-09T01:33:59;98902.91;;;14.27;98.83
51972;BME280;37991;49.662;10.060;2022-09-09T01:36:32;98901.94;;;14.28;98.40
51972;BME280;37991;49.662;10.060;2022-09-09T01:39:01;98903.28;;;14.32;98.77
51972;BME280;37991;49.662;10.060;2022-09-09T01:41:27;98895.38;;;14.32;98.08
51972;BME280;37991;49.662;10.060;2022-09-09T01:44:02;98902.63;;;14.30;98.52
51972;BME280;37991;49.662;10.060;2022-09-09T01:46:29;98903.72;;;14.37;98.05
51972;BME280;37991;49.662;10.060;2022-09-09T01:48:56;98909.69;;;14.39;97.71
51972;BME280;37991;49.662;10.060;2022-09-09T01:51:23;98897.06;;;14.33;98.83
51972;BME280;37991;49.662;10.060;2022-09-09T01:53:49;98895.53;;;14.31;97.77
51972;BME280;37991;49.662;10.060;2022-09-09T02:05:20;98892.63;;;14.53;94.70
51972;BME280;37991;49.662;10.060;2022-09-09T02:08:00;98893.84;;;14.49;96.56
51972;BME280;37991;49.662;10.060;2022-09-09T02:10:55;98891.91;;;14.51;97.06
51972;BME280;37991;49.662;10.060;2022-09-09T02:13:37;98881.91;;;14.55;97.09
51972;BME280;37991;49.662;10.060;2022-09-09T02:18:48;98890.22;;;14.60;96.87
51972;BME280;37991;49.662;10.060;2022-09-09T02:21:17;98886.03;;;14.67;96.47
51972;BME280;37991;49.662;10.060;2022-09-09T02:23:43;98888.13;;;14.63;96.29
51972;BME280;37991;49.662;10.060;2022-09-09T02:26:13;98883.03;;;14.62;97.00
51972;BME280;37991;49.662;10.060;2022-09-09T02:28:47;98883.03;;;14.62;97.08
51972;BME280;37991;49.662;10.060;2022-09-09T02:31:16;98879.09;;;14.66;95.42
51972;BME280;37991;49.662;10.060;2022-09-09T02:33:46;98877.59;;;14.63;94.75
51972;BME280;37991;49.662;10.060;2022-09-09T02:36:14;98879.94;;;14.67;95.50
51972;BME280;37991;49.662;10.060;2022-09-09T02:38:46;98884.53;;;14.64;95.78
51972;BME280;37991;49.662;10.060;2022-09-09T02:41:19;98883.97;;;14.61;94.49
51972;BME280;37991;49.662;10.060;2022-09-09T02:43:47;98893.81;;;14.69;94.69
51972;BME280;37991;49.662;10.060;2022-09-09T02:51:45;98875.94;;;14.62;95.51
51972;BME280;37991;49.662;10.060;2022-09-09T02:54:24;98878.94;;;14.68;95.27
51972;BME280;37991;49.662;10.060;2022-09-09T02:56:53;98876.19;;;14.69;94.93
51972;BME280;37991;49.662;10.060;2022-09-09T02:59:24;98875.09;;;14.62;95.13
51972;BME280;37991;49.662;10.060;2022-09-09T03:01:51;98875.53;;;14.57;94.64
51972;BME280;37991;49.662;10.060;2022-09-09T03:04:16;98885.94;;;14.59;94.84
51972;BME280;37991;49.662;10.060;2022-09-09T03:06:42;98894.13;;;14.56;93.39
51972;BME280;37991;49.662;10.060;2022-09-09T03:09:16;98887.34;;;14.53;92.83
51972;BME280;37991;49.662;10.060;2022-09-09T03:11:41;98882.75;;;14.55;92.92
51972;BME280;37991;49.662;10.060;2022-09-09T03:14:07;98890.22;;;14.60;93.53
51972;BME280;37991;49.662;10.060;2022-09-09T03:16:35;98893.84;;;14.59;93.65
51972;BME280;37991;49.662;10.060;2022-09-09T03:19:01;98881.22;;;14.62;93.65
51972;BME280;37991;49.662;10.060;2022-09-09T03:21:27;98880.75;;;14.67;92.37
51972;BME280;37991;49.662;10.060;2022-09-09T03:23:53;98886.72;;;14.69;92.32
51972;BME280;37991;49.662;10.060;2022-09-09T03:26:19;98883.03;;;14.62;91.22
51972;BME280;37991;49.662;10.060;2022-09-09T03:28:46;98872.31;;;14.63;92.68
51972;BME280;37991;49.662;10.060;2022-09-09T03:31:15;98871.03;;;14.68;93.23
51972;BME280;37991;49.662;10.060;2022-09-09T03:33:41;98868.28;;;14.69;92.65
51972;BME280;37991;49.662;10.060;2022-09-09T03:36:09;98858.19;;;14.64;92.77
51972;BME280;37991;49.662;10.060;2022-09-09T03:38:35;98867.34;;;14.60;93.93
51972;BME280;37991;49.662;10.060;2022-09-09T03:41:01;98866.09;;;14.55;94.27
51972;BME280;37991;49.662;10.060;2022-09-09T03:43:28;98864.16;;;14.57;94.29
51972;BME280;37991;49.662;10.060;2022-09-09T03:45:54;98855.53;;;14.64;94.05
51972;BME280;37991;49.662;10.060;2022-09-09T03:48:25;98856.22;;;14.67;93.89
51972;BME280;37991;49.662;10.060;2022-09-09T03:50:53;98856.50;;;14.63;94.46
51972;BME280;37991;49.662;10.060;2022-09-09T03:53:22;98855.97;;;14.60;94.71
51972;BME280;37991;49.662;10.060;2022-09-09T03:55:50;98866.66;;;14.58;94.81
51972;BME280;37991;49.662;10.060;2022-09-09T03:58:18;98871.19;;;14.66;94.35
51972;BME280;37991;49.662;10.060;2022-09-09T04:00:53;98858.59;;;14.60;95.29
51972;BME280;37991;49.662;10.060;2022-09-09T04:03:19;98865.22;;;14.64;94.72
51972;BME280;37991;49.662;10.060;2022-09-09T04:05:44;98863.13;;;14.68;94.29
51972;BME280;37991;49.662;10.060;2022-09-09T04:08:09;98860.38;;;14.69;93.95
51972;BME280;37991;49.662;10.060;2022-09-09T04:10:36;98868.13;;;14.71;93.92
51972;BME280;37991;49.662;10.060;2022-09-09T04:13:04;98873.16;;;14.64;94.77
51972;BME280;37991;49.662;10.060;2022-09-09T04:15:30;98874.13;;;14.63;95.02
51972;BME280;37991;49.662;10.060;2022-09-09T04:17:55;98882.72;;;14.65;95.07
51972;BME280;37991;49.662;10.060;2022-09-09T04:20:21;98887.72;;;14.68;94.66
51972;BME280;37991;49.662;10.060;2022-09-09T04:22:47;98891.59;;;14.64;95.36
51972;BME280;37991;49.662;10.060;2022-09-09T04:25:13;98898.97;;;14.60;95.60
51972;BME280;37991;49.662;10.060;2022-09-09T04:27:39;98902.13;;;14.64;95.52
51972;BME280;37991;49.662;10.060;2022-09-09T04:30:06;98899.41;;;14.56;96.30
51972;BME280;37991;49.662;10.060;2022-09-09T04:32:33;98892.75;;;14.61;96.56
51972;BME280;37991;49.662;10.060;2022-09-09T04:34:58;98891.34;;;14.57;97.03
51972;BME280;37991;49.662;10.060;2022-09-09T04:37:24;98898.13;;;14.60;97.25
51972;BME280;37991;49.662;10.060;2022-09-09T04:39:50;98886.22;;;14.56;97.00
51972;BME280;37991;49.662;10.060;2022-09-09T04:42:16;98888.03;;;14.55;97.00
51972;BME280;37991;49.662;10.060;2022-09-09T04:44:43;98892.44;;;14.55;96.97
51972;BME280;37991;49.662;10.060;2022-09-09T04:47:09;98888.44;;;14.51;96.65
51972;BME280;37991;49.662;10.060;2022-09-09T04:49:35;98889.53;;;14.48;96.65
51972;BME280;37991;49.662;10.060;2022-09-09T04:52:03;98895.09;;;14.45;95.87
51972;BME280;37991;49.662;10.060;2022-09-09T04:54:30;98900.78;;;14.40;95.83
51972;BME280;37991;49.662;10.060;2022-09-09T04:56:55;98899.16;;;14.39;96.01
51972;BME280;37991;49.662;10.060;2022-09-09T04:59:21;98895.97;;;14.36;96.05
51972;BME280;37991;49.662;10.060;2022-09-09T05:01:51;98896.66;;;14.28;96.06
51972;BME280;37991;49.662;10.060;2022-09-09T05:04:19;98896.66;;;14.28;96.59
51972;BME280;37991;49.662;10.060;2022-09-09T05:06:45;98907.75;;;14.32;96.69
51972;BME280;37991;49.662;10.060;2022-09-09T05:09:12;98896.25;;;14.33;96.51
51972;BME280;37991;49.662;10.060;2022-09-09T05:11:37;98893.91;;;14.30;96.80
51972;BME280;37991;49.662;10.060;2022-09-09T05:14:13;98904.97;;;14.33;97.58
51972;BME280;37991;49.662;10.060;2022-09-09T05:16:39;98903.59;;;14.39;97.71
51972;BME280;37991;49.662;10.060;2022-09-09T05:19:05;98901.91;;;14.38;97.05
51972;BME280;37991;49.662;10.060;2022-09-09T05:21:46;98909.25;;;14.44;97.03
51972;BME280;37991;49.662;10.060;2022-09-09T05:24:14;98914.53;;;14.54;96.75
51972;BME280;37991;49.662;10.060;2022-09-09T05:26:40;98924.50;;;14.60;96.48
51972;BME280;37991;49.662;10.060;2022-09-09T05:29:06;98924.91;;;14.65;96.64
51972;BME280;37991;49.662;10.060;2022-09-09T05:31:33;98929.34;;;14.64;97.31
51972;BME280;37991;49.662;10.060;2022-09-09T05:34:03;98931.84;;;14.66;96.57
51972;BME280;37991;49.662;10.060;2022-09-09T05:36:28;98932.50;;;14.78;94.02
51972;BME280;37991;49.662;10.060;2022-09-09T05:38:55;98925.38;;;14.88;91.40
51972;BME280;37991;49.662;10.060;2022-09-09T05:41:21;98929.34;;;15.02;89.53
51972;BME280;37991;49.662;10.060;2022-09-09T05:43:48;98933.47;;;15.14;89.51
51972;BME280;37991;49.662;10.060;2022-09-09T05:46:22;98925.78;;;15.21;88.36
51972;BME280;37991;49.662;10.060;2022-09-09T05:48:51;98928.38;;;15.30;88.21
51972;BME280;37991;49.662;10.060;2022-09-09T05:51:20;98929.31;;;15.39;88.09
51972;BME280;37991;49.662;10.060;2022-09-09T05:53:48;98934.00;;;15.45;86.82
51972;BME280;37991;49.662;10.060;2022-09-09T05:56:22;98925.31;;;15.53;86.56
51972;BME280;37991;49.662;10.060;2022-09-09T05:58:51;98931.41;;;15.53;87.05
51972;BME280;37991;49.662;10.060;2022-09-09T06:01:21;98933.09;;;15.54;86.94
51972;BME280;37991;49.662;10.060;2022-09-09T06:03:48;98931.13;;;15.56;85.88
51972;BME280;37991;49.662;10.060;2022-09-09T06:06:19;98936.09;;;15.59;86.01
51972;BME280;37991;49.662;10.060;2022-09-09T06:08:51;98937.63;;;15.62;86.14
51972;BME280;37991;49.662;10.060;2022-09-09T06:11:21;98940.53;;;15.69;85.88
51972;BME280;37991;49.662;10.060;2022-09-09T06:13:47;98937.81;;;15.78;85.46
51972;BME280;37991;49.662;10.060;2022-09-09T06:16:15;98944.63;;;15.81;85.01
51972;BME280;37991;49.662;10.060;2022-09-09T06:18:42;98936.78;;;15.89;84.97
51972;BME280;37991;49.662;10.060;2022-09-09T06:21:12;98936.19;;;15.95;84.82
51972;BME280;37991;49.662;10.060;2022-09-09T06:23:39;98938.06;;;16.03;83.98
51972;BME280;37991;49.662;10.060;2022-09-09T06:28:47;98934.50;;;16.12;83.85
51972;BME280;37991;49.662;10.060;2022-09-09T06:31:15;98933.38;;;16.15;84.42
51972;BME280;37991;49.662;10.060;2022-09-09T06:33:43;98933.72;;;16.20;83.87
51972;BME280;37991;49.662;10.060;2022-09-09T06:36:15;98924.84;;;16.21;84.24
51972;BME280;37991;49.662;10.060;2022-09-09T06:38:42;98924.06;;;16.28;84.00
51972;BME280;37991;49.662;10.060;2022-09-09T06:41:11;98929.88;;;16.32;84.02
51972;BME280;37991;49.662;10.060;2022-09-09T06:43:37;98925.78;;;16.38;83.76
51972;BME280;37991;49.662;10.060;2022-09-09T06:46:23;98936.56;;;16.44;82.68
51972;BME280;37991;49.662;10.060;2022-09-09T06:48:53;98940.25;;;16.51;82.44
51972;BME280;37991;49.662;10.060;2022-09-09T06:51:22;98949.72;;;16.62;81.95
51972;BME280;37991;49.662;10.060;2022-09-09T06:53:50;98948.66;;;16.73;81.96
51972;BME280;37991;49.662;10.060;2022-09-09T06:56:17;98947.75;;;16.82;81.37
51972;BME280;37991;49.662;10.060;2022-09-09T06:58:44;98936.06;;;16.93;81.30
51972;BME280;37991;49.662;10.060;2022-09-09T07:01:15;98942.44;;;17.16;80.21
51972;BME280;37991;49.662;10.060;2022-09-09T07:03:44;98939.63;;;17.52;77.96
51972;BME280;37991;49.662;10.060;2022-09-09T07:06:15;98944.25;;;17.58;77.05
51972;BME280;37991;49.662;10.060;2022-09-09T07:08:43;98940.97;;;17.64;75.83
51972;BME280;37991;49.662;10.060;2022-09-09T07:11:09;98937.66;;;17.62;76.08
51972;BME280;37991;49.662;10.060;2022-09-09T07:13:36;98932.31;;;17.54;76.54
51972;BME280;37991;49.662;10.060;2022-09-09T07:16:11;98943.22;;;17.51;76.54
51972;BME280;37991;49.662;10.060;2022-09-09T07:18:36;98940.56;;;17.43;76.69
51972;BME280;37991;49.662;10.060;2022-09-09T07:21:03;98938.44;;;17.47;76.88
51972;BME280;37991;49.662;10.060;2022-09-09T07:23:30;98940.25;;;17.46;76.37
51972;BME280;37991;49.662;10.060;2022-09-09T07:25:56;98935.59;;;17.48;76.88
51972;BME280;37991;49.662;10.060;2022-09-09T07:28:22;98933.50;;;17.52;76.97
51972;BME280;37991;49.662;10.060;2022-09-09T07:30:58;98935.91;;;17.87;76.10
51972;BME280;37991;49.662;10.060;2022-09-09T07:33:25;98933.41;;;18.43;74.25
51972;BME280;37991;49.662;10.060;2022-09-09T07:35:51;98932.91;;;18.72;72.28
51972;BME280;37991;49.662;10.060;2022-09-09T07:38:19;98947.47;;;18.85;71.32
51972;BME280;37991;49.662;10.060;2022-09-09T07:40:45;98938.06;;;19.21;69.49
51972;BME280;37991;49.662;10.060;2022-09-09T07:43:11;98932.84;;;19.36;68.91
51972;BME280;37991;49.662;10.060;2022-09-09T07:45:37;98944.91;;;19.47;69.15
51972;BME280;37991;49.662;10.060;2022-09-09T07:48:03;98945.50;;;19.65;67.96
51972;BME280;37991;49.662;10.060;2022-09-09T07:50:29;98952.47;;;19.66;67.87
51972;BME280;37991;49.662;10.060;2022-09-09T07:52:55;98941.75;;;19.83;67.36
51972;BME280;37991;49.662;10.060;2022-09-09T07:55:21;98950.44;;;20.00;66.96
51972;BME280;37991;49.662;10.060;2022-09-09T07:57:51;98955.25;;;20.19;66.57
51972;BME280;37991;49.662;10.060;2022-09-09T08:00:17;98950.91;;;20.03;67.04
51972;BME280;37991;49.662;10.060;2022-09-09T08:02:49;98943.97;;;19.94;67.22
51972;BME280;37991;49.662;10.060;2022-09-09T08:05:15;98942.81;;;19.73;67.54
51972;BME280;37991;49.662;10.060;2022-09-09T08:07:43;98947.63;;;19.70;68.09
51972;BME280;37991;49.662;10.060;2022-09-09T08:10:09;98954.78;;;19.61;68.22
51972;BME280;37991;49.662;10.060;2022-09-09T08:12:37;98952.25;;;19.76;68.00
51972;BME280;37991;49.662;10.060;2022-09-09T08:15:03;98945.09;;;19.77;67.74
51972;BME280;37991;49.662;10.060;2022-09-09T08:17:31;98950.09;;;19.71;67.77
51972;BME280;37991;49.662;10.060;2022-09-09T08:20:01;98946.06;;;19.84;67.99
51972;BME280;37991;49.662;10.060;2022-09-09T08:22:30;98951.09;;;19.79;68.16
51972;BME280;37991;49.662;10.060;2022-09-09T08:24:56;98953.56;;;19.80;67.85
51972;BME280;37991;49.662;10.060;2022-09-09T08:27:22;98959.34;;;19.84;67.97
51972;BME280;37991;49.662;10.060;2022-09-09T08:29:48;98960.38;;;19.74;67.97
51972;BME280;37991;49.662;10.060;2022-09-09T08:32:13;98962.28;;;19.66;67.83
51972;BME280;37991;49.662;10.060;2022-09-09T08:34:39;98972.78;;;19.51;68.88
51972;BME280;37991;49.662;10.060;2022-09-09T08:37:08;98969.91;;;19.61;68.52
51972;BME280;37991;49.662;10.060;2022-09-09T08:39:37;98977.56;;;19.64;68.44
51972;BME280;37991;49.662;10.060;2022-09-09T08:45:20;98981.22;;;19.55;68.87
51972;BME280;37991;49.662;10.060;2022-09-09T08:47:59;98968.91;;;19.70;68.76
51972;BME280;37991;49.662;10.060;2022-09-09T08:50:35;98967.56;;;19.97;67.75
51972;BME280;37991;49.662;10.060;2022-09-09T08:53:24;98968.06;;;20.01;68.39
51972;BME280;37991;49.662;10.060;2022-09-09T08:56:09;98973.06;;;20.18;67.36
51972;BME280;37991;49.662;10.060;2022-09-09T08:58:51;98979.19;;;20.42;67.13
51972;BME280;37991;49.662;10.060;2022-09-09T09:09:28;98976.81;;;20.85;65.25
51972;BME280;37991;49.662;10.060;2022-09-09T09:11:58;98968.84;;;20.85;65.38
51972;BME280;37991;49.662;10.060;2022-09-09T09:14:28;98967.28;;;21.05;65.26
51972;BME280;37991;49.662;10.060;2022-09-09T09:17:02;98969.13;;;21.20;64.72
51972;BME280;37991;49.662;10.060;2022-09-09T09:19:30;98965.63;;;21.34;63.67
51972;BME280;37991;49.662;10.060;2022-09-09T09:22:05;98967.03;;;21.45;64.24
51972;BME280;37991;49.662;10.060;2022-09-09T09:25:01;98959.34;;;21.56;62.81
51972;BME280;37991;49.662;10.060;2022-09-09T09:27:36;98962.81;;;21.72;62.79
51972;BME280;37991;49.662;10.060;2022-09-09T09:30:15;98964.34;;;21.81;62.23
51972;BME280;37991;49.662;10.060;2022-09-09T09:32:51;98962.84;;;21.93;61.73
51972;BME280;37991;49.662;10.060;2022-09-09T09:35:18;98970.88;;;21.78;61.30
51972;BME280;37991;49.662;10.060;2022-09-09T09:37:43;98960.38;;;21.55;61.95
51972;BME280;37991;49.662;10.060;2022-09-09T09:40:19;98961.78;;;21.51;62.45
51972;BME280;37991;49.662;10.060;2022-09-09T09:42:59;98961.22;;;21.26;60.99
51972;BME280;37991;49.662;10.060;2022-09-09T09:45:33;98963.34;;;21.16;61.47
51972;BME280;37991;49.662;10.060;2022-09-09T09:48:06;98952.59;;;21.24;61.78
51972;BME280;37991;49.662;10.060;2022-09-09T09:50:55;98942.22;;;21.44;61.88
51972;BME280;37991;49.662;10.060;2022-09-09T09:53:28;98941.81;;;21.47;61.78
51972;BME280;37991;49.662;10.060;2022-09-09T09:55:58;98927.13;;;21.51;61.29
51972;BME280;37991;49.662;10.060;2022-09-09T09:58:32;98939.44;;;21.52;61.33
51972;BME280;37991;49.662;10.060;2022-09-09T10:01:00;98938.16;;;21.48;61.01
51972;BME280;37991;49.662;10.060;2022-09-09T10:03:33;98926.63;;;21.41;60.97
51972;BME280;37991;49.662;10.060;2022-09-09T10:06:05;98928.69;;;21.31;61.80
51972;BME280;37991;49.662;10.060;2022-09-09T10:08:34;98939.09;;;21.26;62.42
51972;BME280;37991;49.662;10.060;2022-09-09T10:11:18;98933.94;;;21.24;61.81
51972;BME280;37991;49.662;10.060;2022-09-09T10:16:32;98930.97;;;21.34;61.49
51972;BME280;37991;49.662;10.060;2022-09-09T10:19:06;98933.66;;;21.34;61.26
51972;BME280;37991;49.662;10.060;2022-09-09T10:21:47;98928.63;;;21.39;60.89
51972;BME280;37991;49.662;10.060;2022-09-09T10:27:36;98922.91;;;21.57;58.50
51972;BME280;37991;49.662;10.060;2022-09-09T10:30:14;98914.56;;;21.45;59.71
51972;BME280;37991;49.662;10.060;2022-09-09T10:32:46;98925.56;;;21.57;59.34
51972;BME280;37991;49.662;10.060;2022-09-09T10:35:24;98914.06;;;21.56;58.29
51972;BME280;37991;49.662;10.060;2022-09-09T10:38:24;98924.09;;;21.54;58.42
51972;BME280;37991;49.662;10.060;2022-09-09T10:47:05;98905.31;;;21.63;58.01
51972;BME280;37991;49.662;10.060;2022-09-09T10:52:33;98920.31;;;21.64;58.76
51972;BME280;37991;49.662;10.060;2022-09-09T10:55:17;98969.03;;;21.57;58.42
51972;BME280;37991;49.662;10.060;2022-09-09T10:57:48;98988.13;;;21.17;57.00
51972;BME280;37991;49.662;10.060;2022-09-09T11:00:23;99025.84;;;20.30;71.53
51972;BME280;37991;49.662;10.060;2022-09-09T11:02:59;98999.53;;;19.02;81.48
51972;BME280;37991;49.662;10.060;2022-09-09T11:05:44;99000.53;;;18.52;86.43
51972;BME280;37991;49.662;10.060;2022-09-09T11:08:17;98998.38;;;18.06;91.20
51972;BME280;37991;49.662;10.060;2022-09-09T11:13:53;99018.28;;;17.68;95.87
51972;BME280;37991;49.662;10.060;2022-09-09T11:16:22;99022.47;;;17.36;94.50
51972;BME280;37991;49.662;10.060;2022-09-09T11:18:56;99015.28;;;17.29;95.99
51972;BME280;37991;49.662;10.060;2022-09-09T11:21:31;99009.09;;;17.12;94.50
51972;BME280;37991;49.662;10.060;2022-09-09T11:24:03;99001.75;;;16.98;95.81
51972;BME280;37991;49.662;10.060;2022-09-09T11:26:41;98988.31;;;16.73;93.94
51972;BME280;37991;49.662;10.060;2022-09-09T11:29:47;98987.81;;;16.51;95.31
51972;BME280;37991;49.662;10.060;2022-09-09T11:38:16;98983.03;;;16.73;100.00
51972;BME280;37991;49.662;10.060;2022-09-09T11:40:44;98971.34;;;16.76;99.39
51972;BME280;37991;49.662;10.060;2022-09-09T11:43:22;98978.88;;;16.88;100.00
51972;BME280;37991;49.662;10.060;2022-09-09T11:45:54;98971.13;;;16.95;100.00
51972;BME280;37991;49.662;10.060;2022-09-09T11:51:07;98967.44;;;17.22;99.92
51972;BME280;37991;49.662;10.060;2022-09-09T11:53:50;98964.03;;;17.30;100.00
51972;BME280;37991;49.662;10.060;2022-09-09T11:56:28;98962.06;;;17.40;100.00
51972;BME280;37991;49.662;10.060;2022-09-09T11:59:04;98954.19;;;17.56;100.00
51972;BME280;37991;49.662;10.060;2022-09-09T12:01:33;98951.88;;;17.70;93.64
51972;BME280;37991;49.662;10.060;2022-09-09T12:06:52;98949.78;;;17.89;93.42
51972;BME280;37991;49.662;10.060;2022-09-09T12:14:54;98944.03;;;17.94;92.20
51972;BME280;37991;49.662;10.060;2022-09-09T12:17:24;98941.69;;;17.99;94.19
51972;BME280;37991;49.662;10.060;2022-09-09T12:34:34;98927.44;;;18.25;88.26
51972;BME280;37991;49.662;10.060;2022-09-09T12:37:10;98932.75;;;18.33;88.55
51972;BME280;37991;49.662;10.060;2022-09-09T12:39:49;98931.44;;;18.37;86.11
51972;BME280;37991;49.662;10.060;2022-09-09T12:42:19;98928.59;;;18.47;86.82
51972;BME280;37991;49.662;10.060;2022-09-09T12:44:54;98920.66;;;18.55;87.22
51972;BME280;37991;49.662;10.060;2022-09-09T12:47:26;98918.28;;;18.60;86.22
51972;BME280;37991;49.662;10.060;2022-09-09T12:49:54;98920.66;;;18.55;88.05
51972;BME280;37991;49.662;10.060;2022-09-09T12:52:31;98921.28;;;18.65;85.46
51972;BME280;37991;49.662;10.060;2022-09-09T12:55:00;98917.31;;;18.77;84.70
51972;BME280;37991;49.662;10.060;2022-09-09T12:57:35;98899.91;;;18.67;85.45
51972;BME280;37991;49.662;10.060;2022-09-09T13:00:11;98907.69;;;18.68;86.00
51972;BME280;37991;49.662;10.060;2022-09-09T13:02:55;98906.22;;;18.57;84.96
51972;BME280;37991;49.662;10.060;2022-09-09T13:05:26;98910.38;;;18.52;86.32
51972;BME280;37991;49.662;10.060;2022-09-09T13:08:04;98903.94;;;18.30;86.22
51972;BME280;37991;49.662;10.060;2022-09-09T13:10:34;98903.59;;;18.25;84.71
51972;BME280;37991;49.662;10.060;2022-09-09T13:13:01;98901.13;;;18.31;86.18
51972;BME280;37991;49.662;10.060;2022-09-09T13:15:28;98898.47;;;18.31;85.87
51972;BME280;37991;49.662;10.060;2022-09-09T13:17:57;98900.13;;;18.32;83.91
51972;BME280;37991;49.662;10.060;2022-09-09T13:20:26;98897.97;;;18.36;83.67
51972;BME280;37991;49.662;10.060;2022-09-09T13:22:53;98894.97;;;18.39;84.82
51972;BME280;37991;49.662;10.060;2022-09-09T13:25:27;98891.50;;;18.39;85.50
51972;BME280;37991;49.662;10.060;2022-09-09T13:27:59;98903.09;;;18.46;86.28
51972;BME280;37991;49.662;10.060;2022-09-09T13:38:34;98888.28;;;18.68;83.81
51972;BME280;37991;49.662;10.060;2022-09-09T13:41:04;98884.66;;;18.61;84.69
51972;BME280;37991;49.662;10.060;2022-09-09T13:43:34;98868.91;;;18.67;84.00
51972;BME280;37991;49.662;10.060;2022-09-09T13:46:05;98867.91;;;18.76;86.93
51972;BME280;37991;49.662;10.060;2022-09-09T13:48:54;98865.53;;;18.81;86.62
51972;BME280;37991;49.662;10.060;2022-09-09T13:51:30;98863.41;;;18.77;87.29
51972;BME280;37991;49.662;10.060;2022-09-09T13:53:57;98861.75;;;18.76;86.27
51972;BME280;37991;49.662;10.060;2022-09-09T13:56:24;98871.53;;;18.75;82.87
51972;BME280;37991;49.662;10.060;2022-09-09T13:58:49;98870.91;;;18.57;78.15
51972;BME280;37991;49.662;10.060;2022-09-09T14:01:14;98871.06;;;18.55;78.23
51972;BME280;37991;49.662;10.060;2022-09-09T14:03:40;98868.28;;;18.49;78.41
51972;BME280;37991;49.662;10.060;2022-09-09T14:06:05;98868.59;;;18.54;77.92
51972;BME280;37991;49.662;10.060;2022-09-09T14:08:32;98862.78;;;18.50;78.47
51972;BME280;37991;49.662;10.060;2022-09-09T14:11:03;98869.09;;;18.57;76.93
51972;BME280;37991;49.662;10.060;2022-09-09T14:13:28;98869.91;;;18.58;78.47
51972;BME280;37991;49.662;10.060;2022-09-09T14:15:53;98860.28;;;18.65;77.31
51972;BME280;37991;49.662;10.060;2022-09-09T14:18:19;98863.91;;;18.72;78.16
51972;BME280;37991;49.662;10.060;2022-09-09T14:20:44;98870.38;;;18.70;77.89
51972;BME280;37991;49.662;10.060;2022-09-09T14:23:11;98866.06;;;18.77;78.34
51972;BME280;37991;49.662;10.060;2022-09-09T14:25:42;98864.72;;;18.81;77.69
51972;BME280;37991;49.662;10.060;2022-09-09T14:28:12;98861.91;;;18.66;76.33
51972;BME280;37991;49.662;10.060;2022-09-09T14:30:39;98875.03;;;18.68;76.32
51972;BME280;37991;49.662;10.060;2022-09-09T14:33:05;98860.09;;;18.75;76.72
51972;BME280;37991;49.662;10.060;2022-09-09T14:35:30;98863.41;;;18.77;76.23
51972;BME280;37991;49.662;10.060;2022-09-09T14:37:57;98853.97;;;18.83;74.71
51972;BME280;37991;49.662;10.060;2022-09-09T14:40:22;98855.91;;;18.89;75.77
51972;BME280;37991;49.662;10.060;2022-09-09T14:42:47;98858.53;;;18.97;75.07
51972;BME280;37991;49.662;10.060;2022-09-09T14:45:13;98851.03;;;19.09;73.89
51972;BME280;37991;49.662;10.060;2022-09-09T14:47:38;98846.81;;;19.14;71.00
51972;BME280;37991;49.662;10.060;2022-09-09T14:50:05;98854.78;;;19.14;74.07
51972;BME280;37991;49.662;10.060;2022-09-09T14:52:31;98853.25;;;19.20;73.74
51972;BME280;37991;49.662;10.060;2022-09-09T14:54:56;98860.28;;;19.13;74.03
51972;BME280;37991;49.662;10.060;2022-09-09T14:57:22;98859.00;;;19.00;73.86
51972;BME280;37991;49.662;10.060;2022-09-09T14:59:47;98876.63;;;18.93;73.62
51972;BME280;37991;49.662;10.060;2022-09-09T15:02:15;98869.22;;;18.80;74.70
51972;BME280;37991;49.662;10.060;2022-09-09T15:04:40;98875.19;;;18.74;74.40
51972;BME280;37991;49.662;10.060;2022-09-09T15:07:06;98884.81;;;18.75;76.71
51972;BME280;37991;49.662;10.060;2022-09-09T15:09:31;98905.53;;;18.80;75.66